sensor_id;sensor_type;location;lat;lon;timestamp;P1;durP1;ratioP1;P2;durP2;ratioP2
3189;SDS011;1606;51.946;10.558;2023-12-20T00:00:39;5.13;;;1.13;;
3189;SDS011;1606;51.946;10.558;2023-12-20T00:03:09;4.90;;;1.10;;
3189;SDS011;1606;51.946;10.558;2023-12-20T00:05:37;4.90;;;1.03;;
3189;SDS011;1606;51.946;10.558;2023-12-20T00:08:07;4.80;;;0.90;;
3189;SDS011;1606;51.946;10.558;2023-12-20T00:10:35;5.17;;;1.20;;
3189;SDS011;1606;51.946;10.558;2023-12-20T00:13:03;4.97;;;1.30;;
3189;SDS011;1606;51.946;10.558;2023-12-20T00:15:31;4.90;;;1.00;;
3189;SDS011;1606;51.946;10.558;2023-12-20T00:17:59;4.93;;;1.13;;
3189;SDS011;1606;51.946;10.558;2023-12-20T00:20:28;5.10;;;1.30;;
3189;SDS011;1606;51.946;10.558;2023-12-20T00:22:56;4.87;;;1.20;;
3189;SDS011;1606;51.946;10.558;2023-12-20T00:25:25;6.23;;;1.20;;
3189;SDS011;1606;51.946;10.558;2023-12-20T00:27:52;4.90;;;1.00;;
3189;SDS011;1606;51.946;10.558;2023-12-20T00:30:20;5.00;;;1.27;;
3189;SDS011;1606;51.946;10.558;2023-12-20T00:32:48;4.90;;;1.13;;
3189;SDS011;1606;51.946;10.558;2023-12-20T00:35:16;5.03;;;1.10;;
3189;SDS011;1606;51.946;10.558;2023-12-20T00:37:45;4.97;;;1.10;;
3189;SDS011;1606;51.946;10.558;2023-12-20T00:40:13;5.70;;;1.57;;
3189;SDS011;1606;51.946;10.558;2023-12-20T00:42:41;4.93;;;1.23;;
3189;SDS011;1606;51.946;10.558;2023-12-20T00:45:09;5.20;;;1.20;;
3189;SDS011;1606;51.946;10.558;2023-12-20T00:47:37;4.90;;;1.03;;
3189;SDS011;1606;51.946;10.558;2023-12-20T00:50:05;4.90;;;1.13;;
3189;SDS011;1606;51.946;10.558;2023-12-20T00:52:34;5.00;;;1.20;;
3189;SDS011;1606;51.946;10.558;2023-12-20T00:55:04;4.83;;;1.10;;
3189;SDS011;1606;51.946;10.558;2023-12-20T00:57:32;4.77;;;0.87;;
3189;SDS011;1606;51.946;10.558;2023-12-20T01:00:00;4.80;;;1.03;;
3189;SDS011;1606;51.946;10.558;2023-12-20T01:02:28;5.20;;;1.07;;
3189;SDS011;1606;51.946;10.558;2023-12-20T01:04:56;5.10;;;1.20;;
3189;SDS011;1606;51.946;10.558;2023-12-20T01:07:24;4.80;;;1.00;;
3189;SDS011;1606;51.946;10.558;2023-12-20T01:09:52;5.07;;;1.20;;
3189;SDS011;1606;51.946;10.558;2023-12-20T01:12:21;4.83;;;0.90;;
3189;SDS011;1606;51.946;10.558;2023-12-20T01:14:49;4.93;;;0.80;;
3189;SDS011;1606;51.946;10.558;2023-12-20T01:17:17;4.73;;;0.80;;
3189;SDS011;1606;51.946;10.558;2023-12-20T01:19:44;4.90;;;0.90;;
3189;SDS011;1606;51.946;10.558;2023-12-20T01:22:12;4.70;;;0.80;;
3189;SDS011;1606;51.946;10.558;2023-12-20T01:24:40;4.80;;;0.90;;
3189;SDS011;1606;51.946;10.558;2023-12-20T01:27:09;4.73;;;0.80;;
3189;SDS011;1606;51.946;10.558;2023-12-20T01:29:38;4.80;;;0.90;;
3189;SDS011;1606;51.946;10.558;2023-12-20T01:32:06;4.80;;;0.90;;
3189;SDS011;1606;51.946;10.558;2023-12-20T01:34:34;5.00;;;0.93;;
3189;SDS011;1606;51.946;10.558;2023-12-20T01:37:02;4.80;;;1.00;;
3189;SDS011;1606;51.946;10.558;2023-12-20T01:39:30;5.03;;;1.00;;
3189;SDS011;1606;51.946;10.558;2023-12-20T01:41:58;5.00;;;1.03;;
3189;SDS011;1606;51.946;10.558;2023-12-20T01:44:26;5.13;;;1.20;;
3189;SDS011;1606;51.946;10.558;2023-12-20T01:46:55;7.17;;;1.67;;
3189;SDS011;1606;51.946;10.558;2023-12-20T01:49:24;8.30;;;1.93;;
3189;SDS011;1606;51.946;10.558;2023-12-20T01:51:52;5.93;;;1.97;;
3189;SDS011;1606;51.946;10.558;2023-12-20T01:54:20;6.13;;;2.37;;
3189;SDS011;1606;51.946;10.558;2023-12-20T01:56:48;5.83;;;2.40;;
3189;SDS011;1606;51.946;10.558;2023-12-20T01:59:17;6.90;;;2.60;;
3189;SDS011;1606;51.946;10.558;2023-12-20T02:01:47;6.93;;;2.60;;
3189;SDS011;1606;51.946;10.558;2023-12-20T02:04:17;5.83;;;2.33;;
3189;SDS011;1606;51.946;10.558;2023-12-20T02:06:45;5.90;;;2.63;;
3189;SDS011;1606;51.946;10.558;2023-12-20T02:09:14;8.23;;;2.50;;
3189;SDS011;1606;51.946;10.558;2023-12-20T02:11:42;5.83;;;2.23;;
3189;SDS011;1606;51.946;10.558;2023-12-20T02:14:10;5.77;;;2.37;;
3189;SDS011;1606;51.946;10.558;2023-12-20T02:16:38;5.50;;;2.17;;
3189;SDS011;1606;51.946;10.558;2023-12-20T02:19:07;6.10;;;2.40;;
3189;SDS011;1606;51.946;10.558;2023-12-20T02:21:41;9.83;;;3.40;;
3189;SDS011;1606;51.946;10.558;2023-12-20T02:24:09;9.53;;;3.50;;
3189;SDS011;1606;51.946;10.558;2023-12-20T02:26:37;9.27;;;3.80;;
3189;SDS011;1606;51.946;10.558;2023-12-20T02:29:08;10.20;;;3.70;;
3189;SDS011;1606;51.946;10.558;2023-12-20T02:31:36;7.97;;;3.20;;
3189;SDS011;1606;51.946;10.558;2023-12-20T02:34:04;12.03;;;3.70;;
3189;SDS011;1606;51.946;10.558;2023-12-20T02:36:32;12.37;;;3.30;;
3189;SDS011;1606;51.946;10.558;2023-12-20T02:39:01;9.83;;;2.70;;
3189;SDS011;1606;51.946;10.558;2023-12-20T02:41:30;8.27;;;2.60;;
3189;SDS011;1606;51.946;10.558;2023-12-20T02:43:58;7.43;;;2.30;;
3189;SDS011;1606;51.946;10.558;2023-12-20T02:46:26;12.63;;;3.00;;
3189;SDS011;1606;51.946;10.558;2023-12-20T02:48:53;10.40;;;2.77;;
3189;SDS011;1606;51.946;10.558;2023-12-20T02:51:21;8.27;;;2.03;;
3189;SDS011;1606;51.946;10.558;2023-12-20T02:53:49;13.80;;;2.57;;
3189;SDS011;1606;51.946;10.558;2023-12-20T02:56:18;9.57;;;2.53;;
3189;SDS011;1606;51.946;10.558;2023-12-20T02:58:46;8.27;;;2.33;;
3189;SDS011;1606;51.946;10.558;2023-12-20T03:01:14;9.40;;;2.93;;
3189;SDS011;1606;51.946;10.558;2023-12-20T03:03:42;13.33;;;2.57;;
3189;SDS011;1606;51.946;10.558;2023-12-20T03:06:10;7.50;;;2.67;;
3189;SDS011;1606;51.946;10.558;2023-12-20T03:08:37;7.43;;;2.90;;
3189;SDS011;1606;51.946;10.558;2023-12-20T03:11:07;10.07;;;3.63;;
3189;SDS011;1606;51.946;10.558;2023-12-20T03:13:36;10.37;;;3.23;;
3189;SDS011;1606;51.946;10.558;2023-12-20T03:16:07;11.17;;;3.63;;
3189;SDS011;1606;51.946;10.558;2023-12-20T03:18:35;12.30;;;3.23;;
3189;SDS011;1606;51.946;10.558;2023-12-20T03:21:04;8.33;;;3.70;;
3189;SDS011;1606;51.946;10.558;2023-12-20T03:23:32;13.50;;;4.07;;
3189;SDS011;1606;51.946;10.558;2023-12-20T03:26:00;11.60;;;3.40;;
3189;SDS011;1606;51.946;10.558;2023-12-20T03:28:29;11.00;;;3.37;;
3189;SDS011;1606;51.946;10.558;2023-12-20T03:30:58;8.73;;;3.00;;
3189;SDS011;1606;51.946;10.558;2023-12-20T03:33:26;8.80;;;2.80;;
3189;SDS011;1606;51.946;10.558;2023-12-20T03:35:54;8.13;;;2.80;;
3189;SDS011;1606;51.946;10.558;2023-12-20T03:38:22;8.70;;;2.50;;
3189;SDS011;1606;51.946;10.558;2023-12-20T03:40:50;11.13;;;2.77;;
3189;SDS011;1606;51.946;10.558;2023-12-20T03:43:18;10.90;;;2.63;;
3189;SDS011;1606;51.946;10.558;2023-12-20T03:45:46;9.73;;;2.80;;
3189;SDS011;1606;51.946;10.558;2023-12-20T03:48:15;9.17;;;2.20;;
3189;SDS011;1606;51.946;10.558;2023-12-20T03:50:43;11.20;;;2.80;;
3189;SDS011;1606;51.946;10.558;2023-12-20T03:53:11;10.10;;;2.40;;
3189;SDS011;1606;51.946;10.558;2023-12-20T03:55:39;9.23;;;1.93;;
3189;SDS011;1606;51.946;10.558;2023-12-20T03:58:07;8.57;;;2.53;;
3189;SDS011;1606;51.946;10.558;2023-12-20T04:00:35;8.00;;;1.97;;
3189;SDS011;1606;51.946;10.558;2023-12-20T04:03:03;9.40;;;2.10;;
3189;SDS011;1606;51.946;10.558;2023-12-20T04:05:32;6.83;;;1.90;;
3189;SDS011;1606;51.946;10.558;2023-12-20T04:08:01;9.87;;;2.10;;
3189;SDS011;1606;51.946;10.558;2023-12-20T04:10:29;8.63;;;2.20;;
3189;SDS011;1606;51.946;10.558;2023-12-20T04:12:57;9.67;;;2.03;;
3189;SDS011;1606;51.946;10.558;2023-12-20T04:15:25;6.97;;;1.60;;
3189;SDS011;1606;51.946;10.558;2023-12-20T04:17:53;7.63;;;2.10;;
3189;SDS011;1606;51.946;10.558;2023-12-20T04:20:21;8.83;;;1.77;;
3189;SDS011;1606;51.946;10.558;2023-12-20T04:22:50;8.10;;;1.90;;
3189;SDS011;1606;51.946;10.558;2023-12-20T04:25:18;7.80;;;1.60;;
3189;SDS011;1606;51.946;10.558;2023-12-20T04:27:46;9.40;;;2.20;;
3189;SDS011;1606;51.946;10.558;2023-12-20T04:30:14;8.20;;;1.70;;
3189;SDS011;1606;51.946;10.558;2023-12-20T04:32:42;8.33;;;2.13;;
3189;SDS011;1606;51.946;10.558;2023-12-20T04:35:10;8.00;;;1.90;;
3189;SDS011;1606;51.946;10.558;2023-12-20T04:37:38;7.90;;;2.03;;
3189;SDS011;1606;51.946;10.558;2023-12-20T04:40:08;6.77;;;1.80;;
3189;SDS011;1606;51.946;10.558;2023-12-20T04:42:36;8.07;;;1.70;;
3189;SDS011;1606;51.946;10.558;2023-12-20T04:45:04;9.90;;;2.60;;
3189;SDS011;1606;51.946;10.558;2023-12-20T04:47:33;13.20;;;2.67;;
3189;SDS011;1606;51.946;10.558;2023-12-20T04:50:01;7.97;;;2.20;;
3189;SDS011;1606;51.946;10.558;2023-12-20T04:52:29;7.00;;;2.50;;
3189;SDS011;1606;51.946;10.558;2023-12-20T04:54:57;12.50;;;2.47;;
3189;SDS011;1606;51.946;10.558;2023-12-20T04:57:27;6.23;;;1.70;;
3189;SDS011;1606;51.946;10.558;2023-12-20T04:59:54;6.40;;;1.60;;
3189;SDS011;1606;51.946;10.558;2023-12-20T05:02:22;9.10;;;1.70;;
3189;SDS011;1606;51.946;10.558;2023-12-20T05:04:50;9.30;;;2.10;;
3189;SDS011;1606;51.946;10.558;2023-12-20T05:07:21;9.07;;;2.03;;
3189;SDS011;1606;51.946;10.558;2023-12-20T05:09:49;6.70;;;1.83;;
3189;SDS011;1606;51.946;10.558;2023-12-20T05:12:17;7.97;;;2.77;;
3189;SDS011;1606;51.946;10.558;2023-12-20T05:14:46;17.13;;;2.40;;
3189;SDS011;1606;51.946;10.558;2023-12-20T05:17:14;8.50;;;2.57;;
3189;SDS011;1606;51.946;10.558;2023-12-20T05:19:42;10.90;;;2.10;;
3189;SDS011;1606;51.946;10.558;2023-12-20T05:22:10;12.77;;;2.77;;
3189;SDS011;1606;51.946;10.558;2023-12-20T05:24:38;7.90;;;2.20;;
3189;SDS011;1606;51.946;10.558;2023-12-20T05:27:05;16.17;;;2.50;;
3189;SDS011;1606;51.946;10.558;2023-12-20T05:29:34;7.07;;;2.03;;
3189;SDS011;1606;51.946;10.558;2023-12-20T05:32:03;7.53;;;1.93;;
3189;SDS011;1606;51.946;10.558;2023-12-20T05:34:31;9.90;;;2.67;;
3189;SDS011;1606;51.946;10.558;2023-12-20T05:36:59;9.47;;;2.60;;
3189;SDS011;1606;51.946;10.558;2023-12-20T05:39:28;10.40;;;2.10;;
3189;SDS011;1606;51.946;10.558;2023-12-20T05:41:57;11.87;;;2.60;;
3189;SDS011;1606;51.946;10.558;2023-12-20T05:44:25;10.83;;;2.27;;
3189;SDS011;1606;51.946;10.558;2023-12-20T05:46:53;11.00;;;2.57;;
3189;SDS011;1606;51.946;10.558;2023-12-20T05:49:22;14.03;;;3.20;;
3189;SDS011;1606;51.946;10.558;2023-12-20T05:51:50;9.93;;;2.47;;
3189;SDS011;1606;51.946;10.558;2023-12-20T05:54:18;9.07;;;2.67;;
3189;SDS011;1606;51.946;10.558;2023-12-20T05:56:46;6.20;;;1.80;;
3189;SDS011;1606;51.946;10.558;2023-12-20T05:59:13;8.40;;;2.53;;
3189;SDS011;1606;51.946;10.558;2023-12-20T06:01:41;11.53;;;2.30;;
3189;SDS011;1606;51.946;10.558;2023-12-20T06:04:09;10.17;;;2.70;;
3189;SDS011;1606;51.946;10.558;2023-12-20T06:06:41;13.80;;;2.77;;
3189;SDS011;1606;51.946;10.558;2023-12-20T06:09:10;9.17;;;2.50;;
3189;SDS011;1606;51.946;10.558;2023-12-20T06:11:38;13.10;;;2.57;;
3189;SDS011;1606;51.946;10.558;2023-12-20T06:14:06;12.60;;;2.70;;
3189;SDS011;1606;51.946;10.558;2023-12-20T06:16:34;10.07;;;2.23;;
3189;SDS011;1606;51.946;10.558;2023-12-20T06:19:02;17.07;;;3.50;;
3189;SDS011;1606;51.946;10.558;2023-12-20T06:21:30;14.73;;;3.57;;
3189;SDS011;1606;51.946;10.558;2023-12-20T06:23:59;13.13;;;2.50;;
3189;SDS011;1606;51.946;10.558;2023-12-20T06:26:27;9.17;;;2.50;;
3189;SDS011;1606;51.946;10.558;2023-12-20T06:28:55;16.27;;;2.70;;
3189;SDS011;1606;51.946;10.558;2023-12-20T06:31:23;10.77;;;3.10;;
3189;SDS011;1606;51.946;10.558;2023-12-20T06:33:51;18.37;;;3.73;;
3189;SDS011;1606;51.946;10.558;2023-12-20T06:36:24;12.90;;;3.10;;
3189;SDS011;1606;51.946;10.558;2023-12-20T06:38:51;11.23;;;3.87;;
3189;SDS011;1606;51.946;10.558;2023-12-20T06:41:20;12.27;;;3.27;;
3189;SDS011;1606;51.946;10.558;2023-12-20T06:43:50;12.80;;;3.30;;
3189;SDS011;1606;51.946;10.558;2023-12-20T06:46:19;11.10;;;2.60;;
3189;SDS011;1606;51.946;10.558;2023-12-20T06:48:47;17.57;;;4.00;;
3189;SDS011;1606;51.946;10.558;2023-12-20T06:51:16;22.63;;;3.50;;
3189;SDS011;1606;51.946;10.558;2023-12-20T06:53:46;15.20;;;3.40;;
3189;SDS011;1606;51.946;10.558;2023-12-20T06:56:13;15.63;;;3.27;;
3189;SDS011;1606;51.946;10.558;2023-12-20T06:58:46;20.07;;;3.80;;
3189;SDS011;1606;51.946;10.558;2023-12-20T07:01:14;15.43;;;3.70;;
3189;SDS011;1606;51.946;10.558;2023-12-20T07:03:44;16.13;;;3.27;;
3189;SDS011;1606;51.946;10.558;2023-12-20T07:06:12;22.63;;;4.83;;
3189;SDS011;1606;51.946;10.558;2023-12-20T07:08:42;12.03;;;2.93;;
3189;SDS011;1606;51.946;10.558;2023-12-20T07:11:10;11.70;;;3.73;;
3189;SDS011;1606;51.946;10.558;2023-12-20T07:13:38;12.73;;;3.20;;
3189;SDS011;1606;51.946;10.558;2023-12-20T07:16:07;14.17;;;2.83;;
3189;SDS011;1606;51.946;10.558;2023-12-20T07:18:35;14.53;;;3.67;;
3189;SDS011;1606;51.946;10.558;2023-12-20T07:21:03;17.70;;;4.50;;
3189;SDS011;1606;51.946;10.558;2023-12-20T07:23:31;10.70;;;3.30;;
3189;SDS011;1606;51.946;10.558;2023-12-20T07:25:59;11.80;;;3.70;;
3189;SDS011;1606;51.946;10.558;2023-12-20T07:28:27;10.23;;;3.70;;
3189;SDS011;1606;51.946;10.558;2023-12-20T07:30:55;10.90;;;2.80;;
3189;SDS011;1606;51.946;10.558;2023-12-20T07:33:24;11.23;;;3.90;;
3189;SDS011;1606;51.946;10.558;2023-12-20T07:35:52;11.53;;;3.30;;
3189;SDS011;1606;51.946;10.558;2023-12-20T07:38:20;11.83;;;4.00;;
3189;SDS011;1606;51.946;10.558;2023-12-20T07:40:48;11.00;;;3.13;;
3189;SDS011;1606;51.946;10.558;2023-12-20T07:43:15;15.77;;;4.43;;
3189;SDS011;1606;51.946;10.558;2023-12-20T07:45:44;17.80;;;4.43;;
3189;SDS011;1606;51.946;10.558;2023-12-20T07:48:11;9.83;;;3.00;;
3189;SDS011;1606;51.946;10.558;2023-12-20T07:50:41;13.03;;;3.03;;
3189;SDS011;1606;51.946;10.558;2023-12-20T07:53:09;12.00;;;3.27;;
3189;SDS011;1606;51.946;10.558;2023-12-20T07:55:37;11.87;;;3.20;;
3189;SDS011;1606;51.946;10.558;2023-12-20T07:58:06;10.03;;;2.80;;
3189;SDS011;1606;51.946;10.558;2023-12-20T08:00:34;13.83;;;3.60;;
3189;SDS011;1606;51.946;10.558;2023-12-20T08:03:02;12.83;;;3.50;;
3189;SDS011;1606;51.946;10.558;2023-12-20T08:05:30;17.37;;;3.67;;
3189;SDS011;1606;51.946;10.558;2023-12-20T08:07:59;14.30;;;3.90;;
3189;SDS011;1606;51.946;10.558;2023-12-20T08:10:26;13.80;;;3.90;;
3189;SDS011;1606;51.946;10.558;2023-12-20T08:12:56;15.03;;;5.53;;
3189;SDS011;1606;51.946;10.558;2023-12-20T08:15:23;19.70;;;4.83;;
3189;SDS011;1606;51.946;10.558;2023-12-20T08:17:52;10.83;;;3.10;;
3189;SDS011;1606;51.946;10.558;2023-12-20T08:20:20;12.33;;;4.17;;
3189;SDS011;1606;51.946;10.558;2023-12-20T08:22:59;13.67;;;3.43;;
3189;SDS011;1606;51.946;10.558;2023-12-20T08:25:27;12.00;;;4.03;;
3189;SDS011;1606;51.946;10.558;2023-12-20T08:27:55;15.33;;;3.93;;
3189;SDS011;1606;51.946;10.558;2023-12-20T08:30:23;13.83;;;3.53;;
3189;SDS011;1606;51.946;10.558;2023-12-20T08:32:51;10.70;;;3.37;;
3189;SDS011;1606;51.946;10.558;2023-12-20T08:35:19;11.27;;;4.30;;
3189;SDS011;1606;51.946;10.558;2023-12-20T08:37:47;13.73;;;4.50;;
3189;SDS011;1606;51.946;10.558;2023-12-20T08:40:16;12.40;;;4.00;;
3189;SDS011;1606;51.946;10.558;2023-12-20T08:42:44;19.97;;;4.33;;
3189;SDS011;1606;51.946;10.558;2023-12-20T08:45:12;16.63;;;3.90;;
3189;SDS011;1606;51.946;10.558;2023-12-20T08:47:39;23.13;;;6.03;;
3189;SDS011;1606;51.946;10.558;2023-12-20T08:50:11;21.20;;;4.20;;
3189;SDS011;1606;51.946;10.558;2023-12-20T08:52:39;12.30;;;3.57;;
3189;SDS011;1606;51.946;10.558;2023-12-20T08:55:07;12.07;;;5.93;;
3189;SDS011;1606;51.946;10.558;2023-12-20T08:57:37;12.63;;;4.03;;
3189;SDS011;1606;51.946;10.558;2023-12-20T09:00:05;11.50;;;3.93;;
3189;SDS011;1606;51.946;10.558;2023-12-20T09:02:34;16.67;;;4.20;;
3189;SDS011;1606;51.946;10.558;2023-12-20T09:05:03;16.77;;;3.77;;
3189;SDS011;1606;51.946;10.558;2023-12-20T09:07:32;15.53;;;4.07;;
3189;SDS011;1606;51.946;10.558;2023-12-20T09:10:00;14.60;;;4.00;;
3189;SDS011;1606;51.946;10.558;2023-12-20T09:12:28;14.40;;;3.90;;
3189;SDS011;1606;51.946;10.558;2023-12-20T09:14:57;12.03;;;3.53;;
3189;SDS011;1606;51.946;10.558;2023-12-20T09:17:28;12.07;;;3.37;;
3189;SDS011;1606;51.946;10.558;2023-12-20T09:19:59;11.10;;;4.30;;
3189;SDS011;1606;51.946;10.558;2023-12-20T09:22:27;22.30;;;4.73;;
3189;SDS011;1606;51.946;10.558;2023-12-20T09:24:55;10.07;;;4.00;;
3189;SDS011;1606;51.946;10.558;2023-12-20T09:27:23;11.80;;;4.20;;
3189;SDS011;1606;51.946;10.558;2023-12-20T09:29:50;15.03;;;3.60;;
3189;SDS011;1606;51.946;10.558;2023-12-20T09:32:21;13.47;;;4.00;;
3189;SDS011;1606;51.946;10.558;2023-12-20T09:34:48;14.20;;;3.80;;
3189;SDS011;1606;51.946;10.558;2023-12-20T09:37:16;11.10;;;3.60;;
3189;SDS011;1606;51.946;10.558;2023-12-20T09:39:44;11.90;;;3.77;;
3189;SDS011;1606;51.946;10.558;2023-12-20T09:42:14;17.03;;;4.53;;
3189;SDS011;1606;51.946;10.558;2023-12-20T09:44:48;15.27;;;4.67;;
3189;SDS011;1606;51.946;10.558;2023-12-20T09:47:16;12.60;;;4.70;;
3189;SDS011;1606;51.946;10.558;2023-12-20T09:49:50;11.53;;;3.90;;
3189;SDS011;1606;51.946;10.558;2023-12-20T09:52:18;12.33;;;4.77;;
3189;SDS011;1606;51.946;10.558;2023-12-20T09:54:49;12.97;;;3.90;;
3189;SDS011;1606;51.946;10.558;2023-12-20T09:57:19;10.83;;;3.77;;
3189;SDS011;1606;51.946;10.558;2023-12-20T09:59:47;11.83;;;4.13;;
3189;SDS011;1606;51.946;10.558;2023-12-20T10:02:15;10.37;;;3.90;;
3189;SDS011;1606;51.946;10.558;2023-12-20T10:04:49;11.50;;;3.43;;
3189;SDS011;1606;51.946;10.558;2023-12-20T10:07:17;13.30;;;3.83;;
3189;SDS011;1606;51.946;10.558;2023-12-20T10:09:45;20.63;;;5.03;;
3189;SDS011;1606;51.946;10.558;2023-12-20T10:12:14;14.93;;;4.13;;
3189;SDS011;1606;51.946;10.558;2023-12-20T10:14:42;14.70;;;4.40;;
3189;SDS011;1606;51.946;10.558;2023-12-20T10:17:10;11.83;;;4.57;;
3189;SDS011;1606;51.946;10.558;2023-12-20T10:19:38;14.83;;;3.87;;
3189;SDS011;1606;51.946;10.558;2023-12-20T10:22:07;12.83;;;3.07;;
3189;SDS011;1606;51.946;10.558;2023-12-20T10:24:35;12.37;;;4.30;;
3189;SDS011;1606;51.946;10.558;2023-12-20T10:27:04;8.60;;;3.53;;
3189;SDS011;1606;51.946;10.558;2023-12-20T10:29:33;8.50;;;3.00;;
3189;SDS011;1606;51.946;10.558;2023-12-20T10:32:21;9.47;;;3.47;;
3189;SDS011;1606;51.946;10.558;2023-12-20T10:34:51;8.77;;;3.00;;
3189;SDS011;1606;51.946;10.558;2023-12-20T10:37:21;11.13;;;2.90;;
3189;SDS011;1606;51.946;10.558;2023-12-20T10:39:49;8.13;;;2.70;;
3189;SDS011;1606;51.946;10.558;2023-12-20T10:42:19;16.07;;;3.97;;
3189;SDS011;1606;51.946;10.558;2023-12-20T10:44:48;11.00;;;3.73;;
3189;SDS011;1606;51.946;10.558;2023-12-20T10:47:17;7.20;;;2.43;;
3189;SDS011;1606;51.946;10.558;2023-12-20T10:49:46;11.30;;;4.07;;
3189;SDS011;1606;51.946;10.558;2023-12-20T10:52:14;17.27;;;4.80;;
3189;SDS011;1606;51.946;10.558;2023-12-20T10:54:46;9.83;;;3.67;;
3189;SDS011;1606;51.946;10.558;2023-12-20T10:57:13;11.33;;;3.60;;
3189;SDS011;1606;51.946;10.558;2023-12-20T10:59:45;9.50;;;3.07;;
3189;SDS011;1606;51.946;10.558;2023-12-20T11:02:16;28.33;;;4.30;;
3189;SDS011;1606;51.946;10.558;2023-12-20T11:04:47;14.17;;;4.60;;
3189;SDS011;1606;51.946;10.558;2023-12-20T11:07:21;13.37;;;4.53;;
3189;SDS011;1606;51.946;10.558;2023-12-20T11:09:59;16.27;;;3.65;;
3189;SDS011;1606;51.946;10.558;2023-12-20T11:12:33;12.03;;;3.23;;
3189;SDS011;1606;51.946;10.558;2023-12-20T11:15:06;11.30;;;3.73;;
3189;SDS011;1606;51.946;10.558;2023-12-20T11:17:35;9.50;;;3.13;;
3189;SDS011;1606;51.946;10.558;2023-12-20T11:20:07;10.50;;;3.87;;
3189;SDS011;1606;51.946;10.558;2023-12-20T11:22:38;8.43;;;3.60;;
3189;SDS011;1606;51.946;10.558;2023-12-20T11:25:19;14.07;;;4.03;;
3189;SDS011;1606;51.946;10.558;2023-12-20T11:30:40;11.13;;;4.30;;
3189;SDS011;1606;51.946;10.558;2023-12-20T11:33:09;15.00;;;4.27;;
3189;SDS011;1606;51.946;10.558;2023-12-20T11:35:37;9.60;;;3.67;;
3189;SDS011;1606;51.946;10.558;2023-12-20T11:38:08;11.27;;;3.87;;
3189;SDS011;1606;51.946;10.558;2023-12-20T11:40:40;9.83;;;3.60;;
3189;SDS011;1606;51.946;10.558;2023-12-20T11:43:09;9.60;;;3.80;;
3189;SDS011;1606;51.946;10.558;2023-12-20T11:45:38;10.73;;;3.43;;
3189;SDS011;1606;51.946;10.558;2023-12-20T11:48:18;9.80;;;3.67;;
3189;SDS011;1606;51.946;10.558;2023-12-20T11:50:46;9.40;;;4.40;;
3189;SDS011;1606;51.946;10.558;2023-12-20T11:53:14;10.80;;;4.47;;
3189;SDS011;1606;51.946;10.558;2023-12-20T11:55:48;15.80;;;4.10;;
3189;SDS011;1606;51.946;10.558;2023-12-20T11:58:16;10.93;;;3.50;;
3189;SDS011;1606;51.946;10.558;2023-12-20T12:00:44;10.30;;;3.37;;
3189;SDS011;1606;51.946;10.558;2023-12-20T12:03:14;10.30;;;3.70;;
3189;SDS011;1606;51.946;10.558;2023-12-20T12:05:42;11.37;;;4.10;;
3189;SDS011;1606;51.946;10.558;2023-12-20T12:08:10;11.90;;;3.50;;
3189;SDS011;1606;51.946;10.558;2023-12-20T12:10:40;8.03;;;3.93;;
3189;SDS011;1606;51.946;10.558;2023-12-20T12:13:09;10.60;;;3.73;;
3189;SDS011;1606;51.946;10.558;2023-12-20T12:15:37;10.70;;;3.47;;
3189;SDS011;1606;51.946;10.558;2023-12-20T12:18:06;11.50;;;4.00;;
3189;SDS011;1606;51.946;10.558;2023-12-20T12:20:34;10.67;;;3.80;;
3189;SDS011;1606;51.946;10.558;2023-12-20T12:23:04;11.90;;;4.00;;
3189;SDS011;1606;51.946;10.558;2023-12-20T12:25:34;8.50;;;3.97;;
3189;SDS011;1606;51.946;10.558;2023-12-20T12:28:10;7.87;;;3.23;;
3189;SDS011;1606;51.946;10.558;2023-12-20T12:30:38;11.50;;;4.20;;
3189;SDS011;1606;51.946;10.558;2023-12-20T12:33:19;9.37;;;4.17;;
3189;SDS011;1606;51.946;10.558;2023-12-20T12:35:47;10.40;;;4.37;;
3189;SDS011;1606;51.946;10.558;2023-12-20T12:38:15;10.70;;;5.07;;
3189;SDS011;1606;51.946;10.558;2023-12-20T12:40:43;11.40;;;3.90;;
3189;SDS011;1606;51.946;10.558;2023-12-20T12:43:12;9.43;;;4.13;;
3189;SDS011;1606;51.946;10.558;2023-12-20T12:45:40;13.77;;;5.17;;
3189;SDS011;1606;51.946;10.558;2023-12-20T12:48:08;13.53;;;3.80;;
3189;SDS011;1606;51.946;10.558;2023-12-20T12:50:36;12.97;;;4.17;;
3189;SDS011;1606;51.946;10.558;2023-12-20T12:53:04;9.43;;;4.00;;
3189;SDS011;1606;51.946;10.558;2023-12-20T12:55:32;16.47;;;5.23;;
3189;SDS011;1606;51.946;10.558;2023-12-20T12:58:01;12.70;;;4.70;;
3189;SDS011;1606;51.946;10.558;2023-12-20T13:00:31;11.93;;;5.03;;
3189;SDS011;1606;51.946;10.558;2023-12-20T13:02:59;17.97;;;4.00;;
3189;SDS011;1606;51.946;10.558;2023-12-20T13:05:27;17.87;;;4.43;;
3189;SDS011;1606;51.946;10.558;2023-12-20T13:07:55;11.30;;;3.80;;
3189;SDS011;1606;51.946;10.558;2023-12-20T13:10:25;13.13;;;3.60;;
3189;SDS011;1606;51.946;10.558;2023-12-20T13:12:52;13.70;;;4.30;;
3189;SDS011;1606;51.946;10.558;2023-12-20T13:15:20;8.57;;;3.10;;
3189;SDS011;1606;51.946;10.558;2023-12-20T13:17:50;10.90;;;4.10;;
3189;SDS011;1606;51.946;10.558;2023-12-20T13:20:18;11.40;;;3.90;;
3189;SDS011;1606;51.946;10.558;2023-12-20T13:22:46;7.00;;;2.37;;
3189;SDS011;1606;51.946;10.558;2023-12-20T13:25:14;6.67;;;1.50;;
3189;SDS011;1606;51.946;10.558;2023-12-20T13:27:42;6.87;;;1.80;;
3189;SDS011;1606;51.946;10.558;2023-12-20T13:30:11;6.00;;;1.40;;
3189;SDS011;1606;51.946;10.558;2023-12-20T13:32:39;5.67;;;1.30;;
3189;SDS011;1606;51.946;10.558;2023-12-20T13:35:09;6.77;;;1.70;;
3189;SDS011;1606;51.946;10.558;2023-12-20T13:37:38;6.40;;;1.50;;
3189;SDS011;1606;51.946;10.558;2023-12-20T13:40:07;6.47;;;1.50;;
3189;SDS011;1606;51.946;10.558;2023-12-20T13:42:35;5.73;;;1.20;;
3189;SDS011;1606;51.946;10.558;2023-12-20T13:45:04;7.50;;;1.40;;
3189;SDS011;1606;51.946;10.558;2023-12-20T13:47:33;6.00;;;1.23;;
3189;SDS011;1606;51.946;10.558;2023-12-20T13:50:00;8.20;;;1.20;;
3189;SDS011;1606;51.946;10.558;2023-12-20T13:52:30;5.40;;;1.30;;
3189;SDS011;1606;51.946;10.558;2023-12-20T13:55:02;6.07;;;1.40;;
3189;SDS011;1606;51.946;10.558;2023-12-20T13:57:31;6.30;;;1.30;;
3189;SDS011;1606;51.946;10.558;2023-12-20T14:00:17;5.80;;;1.63;;
3189;SDS011;1606;51.946;10.558;2023-12-20T14:02:45;8.63;;;1.50;;
3189;SDS011;1606;51.946;10.558;2023-12-20T14:05:14;6.90;;;1.20;;
3189;SDS011;1606;51.946;10.558;2023-12-20T14:07:45;6.60;;;1.37;;
3189;SDS011;1606;51.946;10.558;2023-12-20T14:10:14;5.40;;;1.03;;
3189;SDS011;1606;51.946;10.558;2023-12-20T14:12:42;8.13;;;1.47;;
3189;SDS011;1606;51.946;10.558;2023-12-20T14:15:11;6.70;;;1.97;;
3189;SDS011;1606;51.946;10.558;2023-12-20T14:17:40;5.70;;;1.50;;
3189;SDS011;1606;51.946;10.558;2023-12-20T14:20:09;6.60;;;1.40;;
3189;SDS011;1606;51.946;10.558;2023-12-20T14:22:39;7.73;;;1.60;;
3189;SDS011;1606;51.946;10.558;2023-12-20T14:25:11;11.10;;;1.93;;
3189;SDS011;1606;51.946;10.558;2023-12-20T14:27:40;8.23;;;2.30;;
3189;SDS011;1606;51.946;10.558;2023-12-20T14:30:11;8.00;;;1.80;;
3189;SDS011;1606;51.946;10.558;2023-12-20T14:32:41;6.03;;;1.70;;
3189;SDS011;1606;51.946;10.558;2023-12-20T14:35:09;5.90;;;1.40;;
3189;SDS011;1606;51.946;10.558;2023-12-20T14:37:37;6.90;;;1.70;;
3189;SDS011;1606;51.946;10.558;2023-12-20T14:40:07;6.93;;;1.70;;
3189;SDS011;1606;51.946;10.558;2023-12-20T14:42:42;9.20;;;1.93;;
3189;SDS011;1606;51.946;10.558;2023-12-20T14:45:10;6.60;;;1.80;;
3189;SDS011;1606;51.946;10.558;2023-12-20T14:47:39;7.20;;;2.03;;
3189;SDS011;1606;51.946;10.558;2023-12-20T14:50:08;6.80;;;1.93;;
3189;SDS011;1606;51.946;10.558;2023-12-20T14:52:37;9.37;;;2.10;;
3189;SDS011;1606;51.946;10.558;2023-12-20T14:55:05;8.80;;;1.53;;
3189;SDS011;1606;51.946;10.558;2023-12-20T14:57:33;7.00;;;1.67;;
3189;SDS011;1606;51.946;10.558;2023-12-20T15:00:03;9.47;;;1.70;;
3189;SDS011;1606;51.946;10.558;2023-12-20T15:02:31;8.93;;;1.80;;
3189;SDS011;1606;51.946;10.558;2023-12-20T15:04:59;7.30;;;1.13;;
3189;SDS011;1606;51.946;10.558;2023-12-20T15:07:27;8.53;;;1.43;;